Time;durP1;ratioP1;P1;durP2;ratioP2;P2;SDS_P1;SDS_P2;PMS_P1;PMS_P2;Temp;Humidity;BMP_temperature;BMP_pressure;BME280_temperature;BME280_humidity;BME280_pressure;Samples;Min_cycle;Max_cycle;Signal;HPM_P1;HPM_P2
2022/07/10 00:02:10;;;;;;;7.90;4.53;;;13.30;1.00;;;13.64;100.00;98824.88;4997836;28;131014;-72
2022/07/10 00:04:39;;;;;;;10.10;5.15;;;13.30;1.00;;;13.55;100.00;98831.63;5001535;28;129102;-72
2022/07/10 00:07:08;;;;;;;8.85;4.20;;;13.20;59.60;;;13.43;100.00;98829.72;4980288;28;122373;-74
2022/07/10 00:09:36;;;;;;;8.32;4.60;;;13.20;99.90;;;13.45;100.00;98832.91;5000044;28;121908;-72
2022/07/10 00:12:07;;;;;;;13.18;5.32;;;13.20;99.90;;;13.50;100.00;98835.38;4999705;28;129857;-74
2022/07/10 00:14:35;;;;;;;8.15;4.80;;;13.20;99.90;;;13.56;100.00;98836.72;4999653;28;129580;-73
2022/07/10 00:17:04;;;;;;;9.48;4.45;;;13.20;99.90;;;13.60;100.00;98825.91;4999123;28;119437;-73
2022/07/10 00:19:33;;;;;;;8.23;5.00;;;13.30;99.90;;;13.58;100.00;98818.06;5000060;28;119459;-74
2022/07/10 00:22:01;;;;;;;9.25;4.82;;;13.30;99.90;;;13.58;100.00;98820.81;4999487;28;129980;-75
2022/07/10 00:24:30;;;;;;;9.25;4.53;;;13.30;99.90;;;13.60;100.00;98823.19;5001841;28;129231;-74
2022/07/10 00:26:59;;;;;;;8.30;4.65;;;13.30;98.00;;;13.54;100.00;98819.94;4985303;28;119013;-74
2022/07/10 00:29:29;;;;;;;7.65;4.30;;;13.20;99.90;;;13.53;100.00;98823.78;4998682;28;119948;-73
2022/07/10 00:31:58;;;;;;;8.85;4.45;;;13.10;99.90;;;13.56;100.00;98828.56;4997438;28;129237;-74
2022/07/10 00:34:26;;;;;;;7.43;4.60;;;13.10;99.90;;;13.57;100.00;98830.16;4968078;28;129912;-75
2022/07/10 00:36:55;;;;;;;7.13;4.50;;;13.10;99.90;;;13.54;100.00;98828.13;4984934;28;118645;-74
2022/07/10 00:39:24;;;;;;;7.15;4.50;;;13.00;99.90;;;13.47;100.00;98827.91;4981383;28;119598;-74
2022/07/10 00:41:52;;;;;;;8.05;4.22;;;13.00;99.90;;;13.41;100.00;98829.28;5000877;28;129866;-74
2022/07/10 00:44:21;;;;;;;6.43;4.50;;;12.90;99.90;;;13.36;100.00;98815.91;4999301;28;129867;-74
2022/07/10 00:46:51;;;;;;;8.20;4.88;;;12.80;99.90;;;13.28;100.00;98815.69;4999569;28;119634;-74
2022/07/10 00:49:20;;;;;;;9.85;4.70;;;12.70;99.90;;;13.25;100.00;98821.03;5001820;28;119463;-74
2022/07/10 00:51:48;;;;;;;9.48;4.70;;;12.70;99.90;;;13.20;100.00;98813.91;5002854;28;130183;-75
2022/07/10 00:54:18;;;;;;;11.88;4.65;;;12.70;99.90;;;13.16;100.00;98813.00;5004100;28;129832;-74
2022/07/10 00:56:47;;;;;;;8.05;5.15;;;12.70;99.90;;;13.15;100.00;98797.00;5002002;28;122266;-75
2022/07/10 00:59:15;;;;;;;7.50;5.20;;;12.60;99.90;;;13.16;100.00;98799.38;5003036;28;121716;-74
2022/07/10 01:01:44;;;;;;;7.22;5.13;;;12.60;99.90;;;13.13;100.00;98797.34;5002642;28;129969;-74
2022/07/10 01:04:14;;;;;;;11.32;5.43;;;12.50;99.90;;;13.10;100.00;98796.13;4986953;28;128314;-74
2022/07/10 01:06:43;;;;;;;11.57;5.35;;;12.50;99.90;;;13.02;100.00;98782.63;5002801;28;119682;-74
2022/07/10 01:09:12;;;;;;;8.40;4.72;;;12.50;99.90;;;12.98;100.00;98790.69;4987918;28;119118;-75
2022/07/10 01:11:41;;;;;;;13.93;5.43;;;12.50;99.90;;;12.94;100.00;98796.03;5003038;28;129960;-74
2022/07/10 01:14:10;;;;;;;6.95;4.93;;;12.40;99.90;;;12.97;100.00;98793.75;5002897;28;129565;-74
2022/07/10 01:16:39;;;;;;;9.23;5.18;;;12.40;99.90;;;12.93;100.00;98786.28;5002661;28;119806;-74
2022/07/10 01:19:08;;;;;;;7.93;4.88;;;12.30;99.90;;;12.91;100.00;98788.53;5002802;28;119334;-74
2022/07/10 01:21:38;;;;;;;10.70;4.95;;;12.30;99.90;;;12.92;100.00;98779.25;5001218;28;130053;-74
2022/07/10 01:24:10;;;;;;;9.90;5.70;;;12.20;99.90;;;12.92;100.00;98786.63;4987302;28;129205;-74
2022/07/10 01:26:42;;;;;;;7.65;5.30;;;12.20;99.90;;;12.84;100.00;98780.19;4984949;28;120089;-72
2022/07/10 01:29:12;;;;;;;9.57;5.30;;;12.20;99.90;;;12.80;100.00;98786.66;5002299;28;119727;-74
2022/07/10 01:31:41;;;;;;;8.18;4.85;;;12.20;99.90;;;12.75;100.00;98779.50;5002448;28;130039;-73
2022/07/10 01:34:10;;;;;;;9.38;5.78;;;12.20;99.90;;;12.65;100.00;98779.97;4987600;28;128195;-74
2022/07/10 01:36:42;;;;;;;10.40;5.60;;;12.20;99.90;;;12.55;100.00;98770.34;4987661;28;118495;-74
2022/07/10 01:39:11;;;;;;;10.82;5.03;;;12.30;99.90;;;12.51;100.00;98767.53;5003414;28;119393;-73
2022/07/10 01:41:40;;;;;;;8.43;5.10;;;12.30;99.90;;;12.53;100.00;98773.41;5001967;28;130306;-74
2022/07/10 01:44:08;;;;;;;8.10;5.25;;;12.30;99.90;;;12.56;100.00;98775.47;5002035;28;129139;-74
2022/07/10 01:46:43;;;;;;;8.98;5.53;;;12.40;99.90;;;12.64;100.00;98772.97;5001177;28;121968;-74
2022/07/10 01:49:11;;;;;;;9.13;4.80;;;12.40;99.90;;;12.67;100.00;98766.81;4987391;28;122233;-74
2022/07/10 01:51:43;;;;;;;8.32;5.22;;;12.40;99.90;;;12.73;100.00;98760.81;5001947;28;129836;-75
2022/07/10 01:54:11;;;;;;;9.05;5.18;;;12.40;99.90;;;12.83;100.00;98758.75;5001432;28;129601;-74
2022/07/10 01:56:40;;;;;;;10.15;4.50;;;12.50;99.90;;;12.87;100.00;98762.34;5002164;28;119392;-74
2022/07/10 01:59:08;;;;;;;7.88;4.93;;;12.50;99.90;;;12.89;100.00;98754.63;4986638;28;119354;-73
2022/07/10 02:01:37;;;;;;;9.60;5.35;;;12.60;99.90;;;12.89;100.00;98752.69;4986914;28;129526;-73
2022/07/10 02:06:52;;;;;;;9.23;5.10;;;12.60;99.90;;;12.88;100.00;98753.81;5002132;28;119451;-74
2022/07/10 02:09:21;;;;;;;7.25;5.22;;;12.60;99.90;;;12.77;100.00;98755.44;5001738;28;119467;-75
2022/07/10 02:11:49;;;;;;;8.85;5.05;;;12.60;99.90;;;12.76;100.00;98748.41;5000480;28;130298;-74
2022/07/10 02:14:18;;;;;;;6.90;4.75;;;12.60;99.90;;;12.72;100.00;98744.81;5001997;28;129345;-73
2022/07/10 02:16:46;;;;;;;7.95;5.00;;;12.50;99.90;;;12.76;100.00;98740.25;4987267;28;119283;-73
2022/07/10 02:19:15;;;;;;;7.53;5.00;;;12.50;99.90;;;12.84;100.00;98749.41;5000440;28;119531;-75
2022/07/10 02:21:45;;;;;;;10.38;5.90;;;12.50;99.90;;;12.92;100.00;98746.56;5001581;28;129830;-74
2022/07/10 02:24:16;;;;;;;7.80;4.57;;;12.50;99.90;;;13.06;100.00;98734.50;5001493;28;129557;-74
2022/07/10 02:26:45;;;;;;;10.05;5.28;;;12.50;99.90;;;13.23;100.00;98742.38;5001877;28;120086;-75
2022/07/10 02:29:13;;;;;;;9.43;5.32;;;12.60;99.90;;;13.35;100.00;98741.53;5002192;28;119668;-75
2022/07/10 02:31:42;;;;;;;8.85;4.90;;;12.60;99.90;;;13.48;100.00;98740.34;5001388;28;130463;-76
2022/07/10 02:34:12;;;;;;;8.77;5.18;;;12.70;99.90;;;13.64;100.00;98743.06;5001510;28;129760;-75
2022/07/10 02:36:41;;;;;;;7.70;5.20;;;12.80;99.90;;;13.76;100.00;98741.41;4985692;28;121656;-74
2022/07/10 02:39:10;;;;;;;9.00;4.72;;;12.90;99.90;;;13.87;100.00;98747.13;5001625;28;121768;-73
2022/07/10 02:41:40;;;;;;;7.97;5.20;;;13.00;99.90;;;14.01;100.00;98742.03;5001286;28;130619;-74
2022/07/10 02:44:09;;;;;;;10.00;5.78;;;13.10;99.90;;;14.19;100.00;98745.19;5001052;28;130393;-74
2022/07/10 02:46:38;;;;;;;9.43;5.97;;;13.20;99.90;;;14.32;100.00;98743.94;5001404;28;119712;-75
2022/07/10 02:49:06;;;;;;;10.13;5.25;;;13.30;99.90;;;14.42;100.00;98737.16;4983478;28;119513;-74
2022/07/10 02:51:34;;;;;;;13.60;5.35;;;13.40;99.90;;;14.48;100.00;98740.41;4986204;28;129771;-75
2022/07/10 02:54:03;;;;;;;10.02;4.97;;;13.40;99.90;;;14.48;100.00;98734.94;5002232;28;129754;-75
2022/07/10 02:56:32;;;;;;;6.72;4.28;;;13.40;99.90;;;14.52;100.00;98752.97;5001509;28;120106;-74
2022/07/10 02:59:02;;;;;;;10.40;4.75;;;13.50;99.90;;;14.72;100.00;98744.84;4986436;28;119100;-75
2022/07/10 03:01:31;;;;;;;6.55;4.32;;;13.60;99.90;;;14.87;100.00;98745.94;4984903;28;129445;-74
2022/07/10 03:04:01;;;;;;;8.80;5.00;;;13.70;99.90;;;14.67;100.00;98736.94;4986150;28;129563;-75
2022/07/10 03:06:29;;;;;;;7.65;4.57;;;13.60;99.90;;;14.39;100.00;98744.09;5001112;28;119646;-74
2022/07/10 03:08:58;;;;;;;8.95;4.90;;;13.50;99.90;;;14.22;100.00;98739.03;5000935;28;119356;-75
2022/07/10 03:11:26;;;;;;;6.85;4.30;;;13.50;99.90;;;14.18;100.00;98738.94;4999576;28;131260;-74
2022/07/10 03:13:55;;;;;;;6.47;4.25;;;13.50;99.90;;;14.28;100.00;98737.59;4982864;28;130074;-75
2022/07/10 03:16:25;;;;;;;8.88;4.68;;;13.60;99.90;;;14.49;100.00;98740.03;4986303;28;118489;-73
2022/07/10 03:18:53;;;;;;;8.30;4.70;;;13.60;99.90;;;14.59;100.00;98740.63;4986450;28;118118;-73
2022/07/10 03:21:22;;;;;;;7.10;4.35;;;13.60;99.90;;;14.59;100.00;98735.97;4985974;28;128726;-75
2022/07/10 03:23:50;;;;;;;7.95;5.18;;;13.70;99.90;;;14.78;100.00;98734.44;4998654;28;129709;-75
2022/07/10 03:26:19;;;;;;;8.90;4.50;;;13.70;99.90;;;14.97;100.00;98736.38;4999588;28;122147;-74
2022/07/10 03:28:48;;;;;;;8.80;5.03;;;13.80;99.90;;;15.13;100.00;98747.22;5000912;28;122036;-75
2022/07/10 03:31:16;;;;;;;7.22;4.57;;;13.90;99.90;;;15.15;100.00;98744.94;4985359;28;129596;-75
2022/07/10 03:33:46;;;;;;;6.38;4.32;;;13.90;99.90;;;15.22;100.00;98745.06;5000359;28;129560;-75
2022/07/10 03:36:15;;;;;;;7.60;4.22;;;14.00;99.90;;;15.02;100.00;98736.91;4985788;28;119139;-75
2022/07/10 03:38:45;;;;;;;7.70;5.03;;;13.90;99.90;;;14.80;100.00;98743.84;5000978;28;119360;-74
2022/07/10 03:41:14;;;;;;;8.20;4.88;;;13.80;99.90;;;14.87;100.00;98745.94;5000320;28;130490;-74
2022/07/10 03:43:42;;;;;;;10.52;5.57;;;13.90;99.90;;;14.65;100.00;98729.09;4982744;28;129585;-73
2022/07/10 03:46:11;;;;;;;8.57;5.13;;;13.80;99.90;;;14.51;100.00;98724.09;4985783;28;118659;-73
2022/07/10 03:48:40;;;;;;;7.93;4.35;;;13.80;99.90;;;14.34;100.00;98729.94;5000613;28;119689;-74
2022/07/10 03:51:09;;;;;;;10.25;5.10;;;13.70;99.90;;;14.47;100.00;98722.44;4984141;28;129539;-75
2022/07/10 03:53:38;;;;;;;10.57;4.30;;;13.90;99.90;;;14.82;100.00;98724.34;5000516;28;129554;-74
2022/07/10 03:56:07;;;;;;;7.32;5.07;;;14.00;99.90;;;14.86;100.00;98722.50;5000355;28;119920;-75
2022/07/10 03:58:35;;;;;;;10.23;4.88;;;14.00;99.90;;;14.94;100.00;98721.50;5000469;28;119763;-74
2022/07/10 04:01:05;;;;;;;7.38;4.53;;;14.10;99.90;;;15.25;100.00;98722.47;5003622;28;104949;-75
2022/07/10 04:03:33;;;;;;;8.48;4.55;;;14.40;99.90;;;15.36;100.00;98734.41;5002060;28;127923;-73
2022/07/10 04:06:02;;;;;;;7.20;4.50;;;14.50;90.90;;;15.17;100.00;98727.03;5002206;28;118508;-74
2022/07/10 04:08:32;;;;;;;9.65;4.32;;;14.40;19.00;;;15.35;100.00;98727.38;4982893;28;119125;-74
2022/07/10 04:11:01;;;;;;;7.25;4.80;;;14.60;8.00;;;15.27;100.00;98731.13;4981654;28;130891;-71
2022/07/10 04:13:29;;;;;;;9.40;4.85;;;14.50;1.00;;;15.51;100.00;98729.22;4999651;28;129719;-73
2022/07/10 04:15:58;;;;;;;9.15;4.28;;;14.60;1.00;;;15.68;100.00;98726.00;4984066;28;120884;-74
2022/07/10 04:18:27;;;;;;;6.97;4.03;;;14.80;1.00;;;15.53;100.00;98732.38;4999883;28;121282;-75
2022/07/10 04:20:55;;;;;;;7.90;4.03;;;14.70;1.00;;;15.36;100.00;98733.63;5000046;28;129937;-73
2022/07/10 04:23:24;;;;;;;6.85;3.95;;;14.60;1.00;;;15.72;100.00;98723.31;4985313;28;129565;-75
2022/07/10 04:25:54;;;;;;;8.15;4.28;;;14.90;1.00;;;15.88;100.00;98728.69;5000378;28;119551;-72
2022/07/10 04:28:22;;;;;;;10.85;4.75;;;15.00;1.00;;;15.77;100.00;98732.06;4993752;28;119378;-73
2022/07/10 04:30:51;;;;;;;7.13;4.32;;;15.10;1.00;;;15.90;100.00;98729.13;4984909;28;129403;-73
2022/07/10 04:33:19;;;;;;;6.60;3.70;;;15.20;1.00;;;15.87;100.00;98735.34;4981732;28;128487;-74
2022/07/10 04:35:48;;;;;;;8.40;4.70;;;15.10;1.00;;;15.84;100.00;98736.06;4998489;28;118927;-71
2022/07/10 04:38:17;;;;;;;8.23;4.00;;;15.10;1.00;;;15.85;100.00;98734.88;4999494;28;119406;-72
2022/07/10 04:40:46;;;;;;;8.80;3.92;;;15.20;1.00;;;15.96;98.71;98733.13;4996715;28;130030;-71
2022/07/10 04:43:16;;;;;;;8.75;4.35;;;15.30;1.00;;;16.06;98.72;98735.25;4999310;28;129669;-72
2022/07/10 04:45:45;;;;;;;9.80;3.92;;;15.30;1.00;;;15.98;99.04;98737.06;4984616;28;119789;-72
2022/07/10 04:48:13;;;;;;;12.88;4.60;;;15.40;1.00;;;16.20;98.09;98739.38;4999288;28;119929;-75
2022/07/10 04:50:42;;;;;;;9.85;4.25;;;15.50;1.00;;;16.23;96.94;98733.16;4999249;28;129768;-72
2022/07/10 04:53:10;;;;;;;7.25;3.80;;;15.50;1.00;;;16.29;95.38;98728.94;4999034;28;129638;-74
2022/07/10 04:55:39;;;;;;;8.57;3.78;;;15.30;1.00;;;16.29;95.63;98723.47;4999408;28;119313;-73
2022/07/10 04:58:08;;;;;;;10.10;4.07;;;15.40;1.00;;;16.28;95.81;98721.88;4999994;28;119927;-74
2022/07/10 05:00:38;;;;;;;8.77;3.90;;;15.40;1.00;;;16.27;95.81;98715.63;4999293;28;129963;-73
2022/07/10 05:03:06;;;;;;;10.23;3.42;;;15.40;1.00;;;16.02;97.95;98718.00;4999240;28;130294;-73
2022/07/10 05:05:34;;;;;;;13.02;4.35;;;15.40;1.00;;;15.74;99.61;98719.06;4994907;28;122057;-72
2022/07/10 05:08:03;;;;;;;7.40;3.58;;;15.30;1.00;;;15.83;100.00;98727.03;4998572;28;122147;-72
2022/07/10 05:10:32;;;;;;;8.85;3.72;;;15.40;1.00;;;16.04;98.36;98732.09;4963539;28;128712;-76
2022/07/10 05:13:00;;;;;;;9.65;3.92;;;15.50;1.00;;;16.19;98.10;98735.84;4977375;28;130487;-74
2022/07/10 05:15:29;;;;;;;6.30;3.60;;;15.50;1.00;;;16.31;96.45;98737.59;4983710;28;118954;-75
2022/07/10 05:17:59;;;;;;;7.30;3.50;;;15.60;1.00;;;16.25;95.91;98741.78;4993861;28;119662;-75
2022/07/10 05:20:28;;;;;;;11.85;3.70;;;15.60;1.00;;;16.31;95.74;98732.91;4989716;28;130838;-73
2022/07/10 05:22:57;;;;;;;8.20;3.63;;;15.60;1.00;;;16.45;94.96;98737.78;4999350;28;131463;-73
2022/07/10 05:25:26;;;;;;;10.00;3.30;;;15.50;1.00;;;16.75;92.01;98730.75;4968109;28;119205;-72
2022/07/10 05:27:54;;;;;;;9.23;3.75;;;15.80;1.00;;;17.01;91.00;98727.19;4991024;28;119583;-72
2022/07/10 05:30:23;;;;;;;7.80;3.08;;;16.00;1.00;;;17.40;88.80;98724.09;4982686;28;130294;-74
2022/07/10 05:32:51;;;;;;;5.68;3.28;;;16.20;1.00;;;16.98;90.85;98725.19;4998684;28;130257;-74
2022/07/10 05:35:21;;;;;;;6.50;3.25;;;16.10;1.00;;;16.78;92.40;98728.06;4970171;28;118302;-74
2022/07/10 05:37:51;;;;;;;10.68;3.63;;;16.10;1.00;;;17.41;90.06;98725.69;5002889;28;119459;-74
2022/07/10 05:40:20;;;;;;;6.28;3.40;;;16.30;1.00;;;17.28;88.04;98727.09;4986042;28;130277;-75
2022/07/10 05:42:48;;;;;;;6.38;2.60;;;16.10;1.00;;;17.68;87.14;98731.03;4987693;28;128520;-73
2022/07/10 05:45:18;;;;;;;8.10;3.15;;;16.50;1.00;;;17.72;85.50;98729.13;4987721;28;119017;-72
2022/07/10 05:47:46;;;;;;;6.35;2.90;;;16.50;1.00;;;17.27;87.13;98731.81;5004209;28;119360;-73
2022/07/10 05:50:15;;;;;;;5.75;2.70;;;16.30;1.00;;;17.78;84.54;98722.13;5001875;28;130194;-75
2022/07/10 05:52:46;;;;;;;7.90;2.92;;;16.60;1.00;;;18.06;82.38;98720.78;4987235;28;128329;-75
2022/07/10 05:55:15;;;;;;;7.30;3.13;;;16.60;1.00;;;18.24;80.04;98715.44;5003528;28;122227;-75
2022/07/10 05:57:43;;;;;;;6.57;3.33;;;16.50;1.00;;;17.90;81.72;98715.56;4987525;28;121767;-75
2022/07/10 06:00:13;;;;;;;5.60;2.70;;;16.60;1.00;;;17.93;81.19;98715.59;5001722;28;129860;-72
2022/07/10 06:02:42;;;;;;;7.85;3.30;;;16.60;1.00;;;18.01;81.08;98723.91;5001778;28;129681;-76
2022/07/10 06:05:11;;;;;;;7.88;3.05;;;16.50;1.00;;;18.00;81.20;98716.81;5002372;28;119970;-74
2022/07/10 06:07:39;;;;;;;6.70;2.92;;;16.60;1.00;;;17.98;81.58;98705.44;4980662;28;119367;-71
2022/07/10 06:10:10;;;;;;;7.00;2.92;;;16.60;1.00;;;18.00;81.93;98711.31;5001670;28;131035;-71
2022/07/10 06:12:39;;;;;;;6.03;2.97;;;16.70;1.00;;;17.84;83.29;98712.38;5001460;28;129294;-70
2022/07/10 06:15:08;;;;;;;6.63;2.80;;;16.70;1.00;;;17.54;83.92;98712.47;5001984;28;119817;-74
2022/07/10 06:17:37;;;;;;;8.13;3.28;;;16.60;1.00;;;17.43;83.87;98704.16;5001327;28;119453;-75
2022/07/10 06:20:07;;;;;;;6.63;2.70;;;16.50;1.00;;;17.74;84.25;98708.34;5000105;28;129827;-75
2022/07/10 06:22:36;;;;;;;6.00;2.58;;;16.60;1.00;;;18.00;82.35;98708.59;5000946;28;130152;-75
2022/07/10 06:25:07;;;;;;;6.55;2.85;;;16.60;1.00;;;18.09;80.09;98709.03;5002221;28;120107;-76
2022/07/10 06:27:37;;;;;;;6.45;2.72;;;16.70;99.90;;;17.91;82.25;98709.69;5001840;28;119598;-75
2022/07/10 06:30:07;;;;;;;7.45;2.97;;;16.80;1.00;;;18.54;79.67;98711.69;4986651;28;128774;-76
2022/07/10 06:32:36;;;;;;;5.55;2.80;;;17.00;99.90;;;18.25;78.13;98712.31;4999980;28;130291;-72
2022/07/10 06:35:07;;;;;;;6.97;2.70;;;16.90;99.90;;;18.59;79.08;98716.81;4981874;28;120318;-72
2022/07/10 06:37:36;;;;;;;5.57;2.45;;;17.20;99.90;;;18.22;79.15;98718.56;4982163;28;119494;-74
2022/07/10 06:40:07;;;;;;;7.80;2.80;;;16.90;99.90;;;18.58;79.24;98718.00;4981546;28;129797;-74
2022/07/10 06:42:37;;;;;;;6.65;2.92;;;17.30;99.90;;;19.33;76.79;98723.81;4966589;28;129141;-76
2022/07/10 06:45:09;;;;;;;8.05;2.92;;;17.90;99.90;;;19.75;72.43;98727.03;4988784;28;120816;-76
2022/07/10 06:47:55;;;;;;;6.05;2.65;;;17.40;99.90;;;19.90;70.73;98734.16;4969387;28;121534;-76
2022/07/10 06:50:25;;;;;;;7.80;2.60;;;17.30;99.90;;;20.21;69.86;98722.72;5004246;28;130390;-74
2022/07/10 06:52:54;;;;;;;6.15;2.78;;;17.70;99.90;;;20.51;69.11;98727.03;4982994;28;129897;-73
2022/07/10 06:55:24;;;;;;;11.10;4.25;;;18.10;99.90;;;20.56;67.76;98730.16;4994816;28;118973;-71
2022/07/10 06:57:54;;;;;;;5.60;2.30;;;18.00;99.90;;;19.88;68.93;98721.94;5001383;28;119513;-74
2022/07/10 07:00:23;;;;;;;5.93;1.95;;;17.80;99.90;;;19.37;71.14;98712.84;4982770;28;128536;-73
2022/07/10 07:02:52;;;;;;;4.18;1.77;;;17.70;99.90;;;19.02;72.44;98715.06;4997278;28;130101;-73
2022/07/10 07:05:21;;;;;;;8.02;2.65;;;17.50;99.90;;;18.95;72.53;98704.06;5001272;28;119870;-74
2022/07/10 07:07:50;;;;;;;4.38;2.05;;;17.60;99.90;;;19.32;68.33;98707.69;5001612;28;119950;-71
2022/07/10 07:10:19;;;;;;;7.20;2.00;;;17.70;99.90;;;19.68;69.05;98711.31;4999563;28;130719;-70
2022/07/10 07:12:47;;;;;;;5.32;1.98;;;18.20;99.90;;;19.34;67.16;98714.41;5000499;28;129913;-70
2022/07/10 07:15:20;;;;;;;5.93;2.42;;;17.90;99.90;;;19.37;66.81;98708.13;5004173;28;120116;-73
2022/07/10 07:18:07;;;;;;;5.93;2.13;;;17.70;99.90;;;20.16;65.49;98712.09;4983287;28;119597;-72
2022/07/10 07:23:23;;;;;;;4.57;2.00;;;17.60;99.90;;;20.28;63.35;98703.44;5000271;28;129547;-70
2022/07/10 07:25:52;;;;;;;3.50;1.63;;;18.30;99.90;;;20.07;61.94;98705.03;5002796;28;118737;-71
2022/07/10 07:28:21;;;;;;;5.72;1.90;;;18.40;99.90;;;19.98;62.03;98712.91;5002914;28;118619;-72
2022/07/10 07:30:51;;;;;;;5.03;1.98;;;18.40;99.90;;;19.77;62.67;98708.19;5000978;28;130211;-71
2022/07/10 07:33:20;;;;;;;3.83;1.60;;;18.30;99.90;;;19.52;64.06;98702.63;5000151;28;130047;-71
2022/07/10 07:35:48;;;;;;;4.15;1.60;;;18.40;99.90;;;19.99;62.83;98709.00;4981403;28;123427;-71
2022/07/10 07:38:17;;;;;;;4.85;1.90;;;18.80;99.90;;;20.98;59.98;98722.94;4985987;28;121521;-73
2022/07/10 07:40:46;;;;;;;5.20;2.13;;;19.30;99.90;;;21.05;58.61;98711.13;4985271;28;130079;-72
2022/07/10 07:43:15;;;;;;;5.03;1.80;;;19.00;99.90;;;21.14;57.65;98716.94;4985656;28;128335;-72
2022/07/10 07:45:43;;;;;;;4.43;1.90;;;19.00;99.90;;;20.95;58.96;98707.19;5000725;28;119692;-73
2022/07/10 07:48:14;;;;;;;5.72;2.22;;;18.90;99.90;;;21.94;58.63;98713.69;4986165;28;118762;-73
2022/07/10 07:50:43;;;;;;;8.25;2.15;;;19.60;99.90;;;22.46;55.62;98707.34;5000524;28;130725;-73
2022/07/10 07:53:11;;;;;;;3.38;1.70;;;19.80;99.90;;;22.38;54.20;98701.09;5000504;28;129995;-74
2022/07/10 07:55:40;;;;;;;3.67;1.55;;;20.10;99.90;;;22.08;55.10;98708.06;5000386;28;119096;-70
2022/07/10 07:58:08;;;;;;;3.53;1.70;;;19.80;99.90;;;22.16;55.21;98704.03;4999710;28;119666;-76
2022/07/10 08:00:37;;;;;;;8.07;2.40;;;19.90;99.90;;;23.12;54.12;98700.63;4998843;28;129909;-76
2022/07/10 08:03:08;;;;;;;5.05;1.50;;;20.70;99.90;;;23.21;51.80;98698.16;5000460;28;130242;-73
2022/07/10 08:05:39;;;;;;;4.43;1.80;;;20.00;99.90;;;23.22;52.61;98699.72;5000870;28;119728;-75
2022/07/10 08:08:08;;;;;;;4.38;1.85;;;19.90;99.90;;;22.53;54.23;98694.22;5002089;28;119054;-73
2022/07/10 08:10:38;;;;;;;4.20;1.73;;;19.30;99.90;;;21.72;56.89;98697.28;4996105;28;130773;-76
2022/07/10 08:13:06;;;;;;;6.22;2.00;;;19.10;99.90;;;21.70;57.55;98699.69;4997729;28;129269;-74
2022/07/10 08:15:35;;;;;;;3.95;2.00;;;19.00;99.90;;;21.61;56.58;98691.09;4999886;28;119665;-74
2022/07/10 08:18:04;;;;;;;4.57;1.92;;;18.80;99.90;;;21.74;55.87;98700.47;4968317;28;118148;-73
2022/07/10 08:20:33;;;;;;;3.22;1.50;;;19.00;99.90;;;22.04;54.93;98690.72;4975545;28;129982;-72
2022/07/10 08:23:03;;;;;;;4.30;2.05;;;19.40;99.90;;;22.98;52.82;98696.03;4999635;28;130453;-73
2022/07/10 08:25:32;;;;;;;2.47;1.70;;;20.10;99.90;;;22.91;53.48;98685.88;4996457;28;123408;-72
2022/07/10 08:28:05;;;;;;;3.50;1.83;;;20.40;99.90;;;22.75;54.90;98691.19;4981703;28;121917;-74
2022/07/10 08:30:34;;;;;;;4.53;2.10;;;20.50;99.90;;;23.04;54.50;98688.06;4978601;28;130182;-74
2022/07/10 08:33:02;;;;;;;4.28;1.77;;;20.80;99.90;;;23.12;50.03;98701.44;4980177;28;130145;-73
2022/07/10 08:35:31;;;;;;;4.80;1.80;;;20.00;99.90;;;23.18;50.77;98693.44;4979554;28;119489;-72
2022/07/10 08:38:00;;;;;;;3.58;1.33;;;20.10;99.90;;;23.49;48.60;98701.72;4979776;28;119713;-71
2022/07/10 08:40:37;;;;;;;4.18;1.40;;;20.30;99.90;;;24.18;46.34;98695.88;4979652;28;129775;-74
2022/07/10 08:43:06;;;;;;;4.40;1.35;;;21.10;99.90;;;24.41;44.03;98692.28;4965374;28;128430;-76
2022/07/10 08:45:36;;;;;;;3.45;1.52;;;20.90;99.90;;;24.38;45.70;98688.34;4964826;28;118974;-74
2022/07/10 08:48:08;;;;;;;4.38;1.30;;;20.80;99.90;;;24.40;45.46;98685.97;4948964;28;119155;-74
2022/07/10 08:50:43;;;;;;;8.10;2.00;;;21.00;99.90;;;24.03;47.70;98690.59;4947479;28;128700;-75
2022/07/10 08:53:18;;;;;;;5.63;1.30;;;20.60;99.90;;;23.66;49.04;98686.81;4964168;28;128631;-74
2022/07/10 08:55:48;;;;;;;2.85;1.38;;;20.40;99.90;;;23.35;48.25;98696.38;4979916;28;119688;-76
2022/07/10 08:58:18;;;;;;;6.10;1.48;;;19.70;99.90;;;22.98;48.78;98694.09;4964889;28;118875;-76
2022/07/10 09:00:47;;;;;;;5.28;1.83;;;19.40;99.90;;;22.85;49.66;98682.00;4963944;28;129264;-76
2022/07/10 09:03:15;;;;;;;5.43;1.67;;;19.60;99.90;;;22.84;50.41;98685.94;4979232;28;130078;-74
2022/07/10 09:05:44;;;;;;;9.68;2.05;;;19.70;99.90;;;22.77;49.84;98695.13;4971402;28;119901;-73
2022/07/10 09:08:28;;;;;;;3.80;1.48;;;19.50;99.90;;;22.55;47.94;98691.81;5012025;28;119674;-75
2022/07/10 09:11:15;;;;;;;4.85;1.85;;;19.10;99.90;;;22.69;49.06;98690.06;5022106;28;130373;-76
2022/07/10 09:13:52;;;;;;;8.82;1.98;;;19.30;99.90;;;22.75;49.41;98694.75;4991306;28;128761;-74
2022/07/10 09:16:28;;;;;;;3.50;1.50;;;19.30;99.90;;;22.81;48.85;98695.06;4989464;28;121638;-74
2022/07/10 09:18:58;;;;;;;4.35;1.88;;;19.50;99.90;;;23.08;47.66;98694.34;5007438;28;121284;-73
2022/07/10 09:21:26;;;;;;;4.43;1.55;;;19.70;99.90;;;23.22;47.82;98688.66;5004666;28;130266;-76
2022/07/10 09:23:59;;;;;;;7.45;1.67;;;20.20;99.90;;;23.49;47.90;98691.41;5008078;28;128268;-75
2022/07/10 09:26:29;;;;;;;3.58;1.60;;;20.40;99.90;;;24.03;46.91;98685.03;5022515;28;119772;-76
2022/07/10 09:29:08;;;;;;;3.45;1.40;;;20.70;99.90;;;24.26;45.27;98686.22;5022596;28;119254;-73
2022/07/10 09:31:54;;;;;;;5.63;1.50;;;20.70;99.90;;;24.36;45.18;98690.78;5007362;28;128739;-75
2022/07/10 09:34:39;;;;;;;4.43;1.50;;;20.60;99.90;;;23.63;47.88;98681.31;5022551;28;129564;-72
2022/07/10 09:37:26;;;;;;;3.10;1.60;;;21.00;99.90;;;24.10;47.29;98688.88;5006255;28;119773;-78
2022/07/10 09:39:57;;;;;;;5.65;2.03;;;20.80;99.90;;;24.17;46.27;98684.00;5022615;28;119474;-75
2022/07/10 09:42:30;;;;;;;2.85;1.60;;;20.00;99.90;;;23.90;47.71;98678.53;5020985;28;129753;-77
2022/07/10 09:45:19;;;;;;;5.05;1.80;;;20.10;99.90;;;23.44;48.27;98671.75;5022277;28;129572;-70
2022/07/10 09:47:57;;;;;;;4.57;1.65;;;19.40;99.90;;;23.17;48.93;98686.34;5003549;28;119990;-73
2022/07/10 09:50:29;;;;;;;8.45;2.78;;;19.40;99.90;;;23.25;49.10;98687.81;5004016;28;119162;-80
2022/07/10 09:52:59;;;;;;;4.60;1.52;;;20.00;99.90;;;23.39;47.97;98686.03;4987140;28;128472;-79
2022/07/10 09:55:30;;;;;;;6.35;1.70;;;19.80;99.90;;;23.36;46.89;98670.25;5024867;28;133169;-75
2022/07/10 09:58:01;;;;;;;6.05;1.98;;;19.50;99.90;;;23.64;47.27;98663.50;5003700;28;119712;-73
2022/07/10 10:00:33;;;;;;;9.82;2.30;;;20.50;99.90;;;23.74;46.59;98678.38;5022564;28;119363;-74
2022/07/10 10:03:04;;;;;;;4.35;1.58;;;20.50;99.90;;;23.85;46.69;98684.56;5006850;28;129210;-73
2022/07/10 10:05:38;;;;;;;4.45;2.20;;;20.20;99.90;;;24.25;47.07;98676.34;5021596;28;129577;-71
2022/07/10 10:08:14;;;;;;;5.80;1.88;;;21.10;99.90;;;24.29;46.40;98688.13;5020245;28;122319;-73
2022/07/10 10:10:47;;;;;;;5.97;2.90;;;20.70;99.90;;;24.55;46.88;98674.59;5020805;28;122380;-73
2022/07/10 10:13:20;;;;;;;4.15;1.63;;;21.00;99.90;;;24.73;43.78;98675.03;5021264;28;130712;-75
2022/07/10 10:15:51;;;;;;;5.72;1.60;;;20.80;99.90;;;24.85;46.77;98664.50;5006724;28;128296;-71
2022/07/10 10:18:21;;;;;;;7.20;2.00;;;21.50;99.90;;;24.38;44.22;98674.50;5003993;28;119248;-72
2022/07/10 10:20:51;;;;;;;3.33;1.35;;;21.40;99.90;;;24.09;45.34;98676.22;5006603;28;119097;-75
2022/07/10 10:23:22;;;;;;;2.95;1.40;;;21.20;99.90;;;24.59;44.40;98678.13;5021614;28;130401;-74
2022/07/10 10:25:52;;;;;;;4.85;1.75;;;20.90;99.90;;;24.80;44.53;98679.66;5004012;28;129445;-75
2022/07/10 10:28:24;;;;;;;3.95;1.50;;;21.00;99.90;;;24.89;43.65;98681.88;5021279;28;119639;-75